sensor_id;sensor_type;location;lat;lon;timestamp;temperature;humidity
5578;DHT22;2811;51.900;10.734;2022-10-16T00:00:33;15.50;99.90
5578;DHT22;2811;51.900;10.734;2022-10-16T00:03:00;15.40;99.90
5578;DHT22;2811;51.900;10.734;2022-10-16T00:05:28;15.30;99.90
5578;DHT22;2811;51.900;10.734;2022-10-16T00:07:54;15.40;99.90
5578;DHT22;2811;51.900;10.734;2022-10-16T00:10:21;15.30;99.90
5578;DHT22;2811;51.900;10.734;2022-10-16T00:12:48;15.20;99.90
5578;DHT22;2811;51.900;10.734;2022-10-16T00:15:16;15.30;99.90
5578;DHT22;2811;51.900;10.734;2022-10-16T00:17:43;15.20;99.90
5578;DHT22;2811;51.900;10.734;2022-10-16T00:20:10;15.10;99.90
5578;DHT22;2811;51.900;10.734;2022-10-16T00:22:37;15.00;99.90
5578;DHT22;2811;51.900;10.734;2022-10-16T00:25:04;15.20;99.90
5578;DHT22;2811;51.900;10.734;2022-10-16T00:27:31;15.00;99.90
5578;DHT22;2811;51.900;10.734;2022-10-16T00:29:58;14.90;99.90
5578;DHT22;2811;51.900;10.734;2022-10-16T00:32:26;14.80;99.90
5578;DHT22;2811;51.900;10.734;2022-10-16T00:34:52;14.70;99.90
5578;DHT22;2811;51.900;10.734;2022-10-16T00:37:20;14.70;99.90
5578;DHT22;2811;51.900;10.734;2022-10-16T00:39:47;14.70;99.90
5578;DHT22;2811;51.900;10.734;2022-10-16T00:42:15;14.70;99.90
5578;DHT22;2811;51.900;10.734;2022-10-16T00:44:48;14.60;99.90
5578;DHT22;2811;51.900;10.734;2022-10-16T00:47:21;14.50;99.90
5578;DHT22;2811;51.900;10.734;2022-10-16T00:49:53;14.40;99.90
5578;DHT22;2811;51.900;10.734;2022-10-16T00:52:21;14.40;99.90
5578;DHT22;2811;51.900;10.734;2022-10-16T00:54:49;14.30;99.90
5578;DHT22;2811;51.900;10.734;2022-10-16T00:57:16;14.30;99.90
5578;DHT22;2811;51.900;10.734;2022-10-16T00:59:43;14.30;99.90
5578;DHT22;2811;51.900;10.734;2022-10-16T01:02:12;14.20;99.90
5578;DHT22;2811;51.900;10.734;2022-10-16T01:04:42;14.30;99.90
5578;DHT22;2811;51.900;10.734;2022-10-16T01:07:16;14.20;99.90
5578;DHT22;2811;51.900;10.734;2022-10-16T01:09:57;14.30;99.90
5578;DHT22;2811;51.900;10.734;2022-10-16T01:12:36;14.30;99.90
5578;DHT22;2811;51.900;10.734;2022-10-16T01:15:10;14.30;99.90
5578;DHT22;2811;51.900;10.734;2022-10-16T01:17:43;14.30;99.90
5578;DHT22;2811;51.900;10.734;2022-10-16T01:20:19;14.60;99.90
5578;DHT22;2811;51.900;10.734;2022-10-16T01:22:59;14.20;99.90
5578;DHT22;2811;51.900;10.734;2022-10-16T01:25:36;14.20;99.90
5578;DHT22;2811;51.900;10.734;2022-10-16T01:28:07;14.20;99.90
5578;DHT22;2811;51.900;10.734;2022-10-16T01:30:36;14.00;99.90
5578;DHT22;2811;51.900;10.734;2022-10-16T01:33:10;14.00;99.90
5578;DHT22;2811;51.900;10.734;2022-10-16T01:35:42;14.20;99.90
5578;DHT22;2811;51.900;10.734;2022-10-16T01:38:12;14.00;99.90
5578;DHT22;2811;51.900;10.734;2022-10-16T01:40:44;14.00;99.90
5578;DHT22;2811;51.900;10.734;2022-10-16T01:43:16;14.00;99.90
5578;DHT22;2811;51.900;10.734;2022-10-16T01:45:45;13.90;99.90
5578;DHT22;2811;51.900;10.734;2022-10-16T01:48:14;13.90;99.90
5578;DHT22;2811;51.900;10.734;2022-10-16T01:50:42;13.80;99.90
5578;DHT22;2811;51.900;10.734;2022-10-16T01:53:13;13.80;99.90
5578;DHT22;2811;51.900;10.734;2022-10-16T01:55:43;13.80;99.90
5578;DHT22;2811;51.900;10.734;2022-10-16T01:58:13;13.90;99.90
5578;DHT22;2811;51.900;10.734;2022-10-16T02:00:43;13.90;99.90
5578;DHT22;2811;51.900;10.734;2022-10-16T02:03:12;13.90;99.90
5578;DHT22;2811;51.900;10.734;2022-10-16T02:05:44;13.90;99.90
5578;DHT22;2811;51.900;10.734;2022-10-16T02:08:11;13.80;99.90
5578;DHT22;2811;51.900;10.734;2022-10-16T02:10:39;13.80;99.90
5578;DHT22;2811;51.900;10.734;2022-10-16T02:13:08;13.90;99.90
5578;DHT22;2811;51.900;10.734;2022-10-16T02:15:37;13.90;99.90
5578;DHT22;2811;51.900;10.734;2022-10-16T02:18:04;13.80;99.90
5578;DHT22;2811;51.900;10.734;2022-10-16T02:20:35;13.70;99.90
5578;DHT22;2811;51.900;10.734;2022-10-16T02:23:03;13.70;99.90
5578;DHT22;2811;51.900;10.734;2022-10-16T02:25:32;13.70;99.90
5578;DHT22;2811;51.900;10.734;2022-10-16T02:28:03;13.80;99.90
5578;DHT22;2811;51.900;10.734;2022-10-16T02:30:34;13.80;99.90
5578;DHT22;2811;51.900;10.734;2022-10-16T02:33:05;13.80;99.90
5578;DHT22;2811;51.900;10.734;2022-10-16T02:35:34;13.90;99.90
5578;DHT22;2811;51.900;10.734;2022-10-16T02:38:01;13.90;99.90
5578;DHT22;2811;51.900;10.734;2022-10-16T02:40:28;14.00;99.90
5578;DHT22;2811;51.900;10.734;2022-10-16T02:42:55;14.00;99.90
5578;DHT22;2811;51.900;10.734;2022-10-16T02:45:23;14.10;99.90
5578;DHT22;2811;51.900;10.734;2022-10-16T02:47:50;14.20;99.90
5578;DHT22;2811;51.900;10.734;2022-10-16T02:50:18;14.00;99.90
5578;DHT22;2811;51.900;10.734;2022-10-16T02:52:45;14.10;99.90
5578;DHT22;2811;51.900;10.734;2022-10-16T02:55:12;13.90;99.90
5578;DHT22;2811;51.900;10.734;2022-10-16T02:57:39;14.00;99.90
5578;DHT22;2811;51.900;10.734;2022-10-16T03:00:06;14.00;99.90
5578;DHT22;2811;51.900;10.734;2022-10-16T03:02:34;14.00;99.90
5578;DHT22;2811;51.900;10.734;2022-10-16T03:05:01;14.10;99.90
5578;DHT22;2811;51.900;10.734;2022-10-16T03:07:29;14.10;99.90
5578;DHT22;2811;51.900;10.734;2022-10-16T03:09:56;14.10;99.90
5578;DHT22;2811;51.900;10.734;2022-10-16T03:12:25;14.00;99.90
5578;DHT22;2811;51.900;10.734;2022-10-16T03:14:52;14.10;99.90
5578;DHT22;2811;51.900;10.734;2022-10-16T03:17:19;13.90;99.90
5578;DHT22;2811;51.900;10.734;2022-10-16T03:19:45;14.00;99.90
5578;DHT22;2811;51.900;10.734;2022-10-16T03:22:12;13.90;99.90
5578;DHT22;2811;51.900;10.734;2022-10-16T03:24:40;13.90;99.90
5578;DHT22;2811;51.900;10.734;2022-10-16T03:27:07;13.90;99.90
5578;DHT22;2811;51.900;10.734;2022-10-16T03:29:34;13.90;99.90
5578;DHT22;2811;51.900;10.734;2022-10-16T03:32:01;13.90;99.90
5578;DHT22;2811;51.900;10.734;2022-10-16T03:34:28;13.90;99.90
5578;DHT22;2811;51.900;10.734;2022-10-16T03:36:55;13.90;99.90
5578;DHT22;2811;51.900;10.734;2022-10-16T03:39:22;14.00;99.90
5578;DHT22;2811;51.900;10.734;2022-10-16T03:41:50;13.90;99.90
5578;DHT22;2811;51.900;10.734;2022-10-16T03:44:17;13.90;99.90
5578;DHT22;2811;51.900;10.734;2022-10-16T03:46:44;13.80;99.90
5578;DHT22;2811;51.900;10.734;2022-10-16T03:49:10;13.70;99.90
5578;DHT22;2811;51.900;10.734;2022-10-16T03:51:37;13.70;99.90
5578;DHT22;2811;51.900;10.734;2022-10-16T03:54:04;13.70;99.90
5578;DHT22;2811;51.900;10.734;2022-10-16T03:56:31;13.60;99.90
5578;DHT22;2811;51.900;10.734;2022-10-16T03:58:59;13.50;99.90
5578;DHT22;2811;51.900;10.734;2022-10-16T04:01:26;13.50;99.90
5578;DHT22;2811;51.900;10.734;2022-10-16T04:03:53;13.40;99.90
5578;DHT22;2811;51.900;10.734;2022-10-16T04:06:19;13.40;99.90
5578;DHT22;2811;51.900;10.734;2022-10-16T04:08:46;13.40;99.90
5578;DHT22;2811;51.900;10.734;2022-10-16T04:11:13;13.50;99.90
5578;DHT22;2811;51.900;10.734;2022-10-16T04:13:40;13.50;99.90
5578;DHT22;2811;51.900;10.734;2022-10-16T04:16:08;13.60;99.90
5578;DHT22;2811;51.900;10.734;2022-10-16T04:18:35;14.00;99.90
5578;DHT22;2811;51.900;10.734;2022-10-16T04:21:03;13.60;99.90
5578;DHT22;2811;51.900;10.734;2022-10-16T04:23:30;13.70;99.90
5578;DHT22;2811;51.900;10.734;2022-10-16T04:25:56;13.70;99.90
5578;DHT22;2811;51.900;10.734;2022-10-16T04:28:23;13.70;99.90
5578;DHT22;2811;51.900;10.734;2022-10-16T04:30:50;13.60;99.90
5578;DHT22;2811;51.900;10.734;2022-10-16T04:33:18;13.60;99.90
5578;DHT22;2811;51.900;10.734;2022-10-16T04:35:45;13.70;99.90
5578;DHT22;2811;51.900;10.734;2022-10-16T04:38:12;13.60;99.90
5578;DHT22;2811;51.900;10.734;2022-10-16T04:40:38;13.60;99.90
5578;DHT22;2811;51.900;10.734;2022-10-16T04:43:05;13.50;99.90
5578;DHT22;2811;51.900;10.734;2022-10-16T04:45:32;13.40;99.90
5578;DHT22;2811;51.900;10.734;2022-10-16T04:47:59;13.40;99.90
5578;DHT22;2811;51.900;10.734;2022-10-16T04:50:28;13.50;99.90
5578;DHT22;2811;51.900;10.734;2022-10-16T04:52:54;13.50;99.90
5578;DHT22;2811;51.900;10.734;2022-10-16T04:55:21;13.50;99.90
5578;DHT22;2811;51.900;10.734;2022-10-16T04:57:48;13.50;99.90
5578;DHT22;2811;51.900;10.734;2022-10-16T05:00:15;13.50;99.90
5578;DHT22;2811;51.900;10.734;2022-10-16T05:02:41;13.60;99.90
5578;DHT22;2811;51.900;10.734;2022-10-16T05:05:09;13.60;99.90
5578;DHT22;2811;51.900;10.734;2022-10-16T05:07:37;13.50;99.90
5578;DHT22;2811;51.900;10.734;2022-10-16T05:10:04;13.40;99.90
5578;DHT22;2811;51.900;10.734;2022-10-16T05:12:31;13.40;99.90
5578;DHT22;2811;51.900;10.734;2022-10-16T05:14:58;13.30;99.90
5578;DHT22;2811;51.900;10.734;2022-10-16T05:17:25;13.40;99.90
5578;DHT22;2811;51.900;10.734;2022-10-16T05:19:52;13.40;99.90
5578;DHT22;2811;51.900;10.734;2022-10-16T05:22:18;13.40;99.90
5578;DHT22;2811;51.900;10.734;2022-10-16T05:24:47;13.40;99.90
5578;DHT22;2811;51.900;10.734;2022-10-16T05:27:13;13.30;99.90
5578;DHT22;2811;51.900;10.734;2022-10-16T05:29:44;13.30;99.90
5578;DHT22;2811;51.900;10.734;2022-10-16T05:32:11;13.30;99.90
5578;DHT22;2811;51.900;10.734;2022-10-16T05:34:38;13.20;99.90
5578;DHT22;2811;51.900;10.734;2022-10-16T05:37:04;13.20;99.90
5578;DHT22;2811;51.900;10.734;2022-10-16T05:39:31;13.20;99.90
5578;DHT22;2811;51.900;10.734;2022-10-16T05:41:59;13.20;99.90
5578;DHT22;2811;51.900;10.734;2022-10-16T05:44:26;13.20;99.90
5578;DHT22;2811;51.900;10.734;2022-10-16T05:46:53;13.20;99.90
5578;DHT22;2811;51.900;10.734;2022-10-16T05:49:20;13.00;99.90
5578;DHT22;2811;51.900;10.734;2022-10-16T05:51:47;13.10;99.90
5578;DHT22;2811;51.900;10.734;2022-10-16T05:54:14;13.00;99.90
5578;DHT22;2811;51.900;10.734;2022-10-16T05:56:41;13.00;99.90
5578;DHT22;2811;51.900;10.734;2022-10-16T05:59:09;13.00;99.90
5578;DHT22;2811;51.900;10.734;2022-10-16T06:01:35;13.10;99.90
5578;DHT22;2811;51.900;10.734;2022-10-16T06:04:02;13.20;99.90
5578;DHT22;2811;51.900;10.734;2022-10-16T06:06:29;13.20;99.90
5578;DHT22;2811;51.900;10.734;2022-10-16T06:08:57;13.30;99.90
5578;DHT22;2811;51.900;10.734;2022-10-16T06:11:26;13.30;99.90
5578;DHT22;2811;51.900;10.734;2022-10-16T06:13:55;13.40;99.90
5578;DHT22;2811;51.900;10.734;2022-10-16T06:16:25;13.40;99.90
5578;DHT22;2811;51.900;10.734;2022-10-16T06:18:53;13.50;99.90
5578;DHT22;2811;51.900;10.734;2022-10-16T06:21:22;13.50;99.90
5578;DHT22;2811;51.900;10.734;2022-10-16T06:23:50;13.60;99.90
5578;DHT22;2811;51.900;10.734;2022-10-16T06:26:18;13.60;99.90
5578;DHT22;2811;51.900;10.734;2022-10-16T06:28:46;13.60;99.90
5578;DHT22;2811;51.900;10.734;2022-10-16T06:31:14;13.60;99.90
5578;DHT22;2811;51.900;10.734;2022-10-16T06:33:42;13.60;99.90
5578;DHT22;2811;51.900;10.734;2022-10-16T06:36:12;13.70;99.90
5578;DHT22;2811;51.900;10.734;2022-10-16T06:38:40;13.80;99.90
5578;DHT22;2811;51.900;10.734;2022-10-16T06:41:09;14.20;99.90
5578;DHT22;2811;51.900;10.734;2022-10-16T06:43:36;14.00;99.90
5578;DHT22;2811;51.900;10.734;2022-10-16T06:46:05;14.10;99.90
5578;DHT22;2811;51.900;10.734;2022-10-16T06:48:33;14.20;99.90
5578;DHT22;2811;51.900;10.734;2022-10-16T06:51:04;14.30;99.90
5578;DHT22;2811;51.900;10.734;2022-10-16T06:53:32;14.30;99.90
5578;DHT22;2811;51.900;10.734;2022-10-16T06:56:07;14.30;99.90
5578;DHT22;2811;51.900;10.734;2022-10-16T06:58:33;14.30;99.90
5578;DHT22;2811;51.900;10.734;2022-10-16T07:01:00;14.30;99.90
5578;DHT22;2811;51.900;10.734;2022-10-16T07:03:27;14.80;99.90
5578;DHT22;2811;51.900;10.734;2022-10-16T07:05:54;14.30;99.90
5578;DHT22;2811;51.900;10.734;2022-10-16T07:08:23;14.40;99.90
5578;DHT22;2811;51.900;10.734;2022-10-16T07:10:58;14.40;99.90
5578;DHT22;2811;51.900;10.734;2022-10-16T07:13:25;14.70;99.90
5578;DHT22;2811;51.900;10.734;2022-10-16T07:15:52;14.50;99.90
5578;DHT22;2811;51.900;10.734;2022-10-16T07:18:19;14.60;99.90
5578;DHT22;2811;51.900;10.734;2022-10-16T07:20:45;14.80;99.90
5578;DHT22;2811;51.900;10.734;2022-10-16T07:23:12;15.10;99.90
5578;DHT22;2811;51.900;10.734;2022-10-16T07:25:40;15.30;99.90
5578;DHT22;2811;51.900;10.734;2022-10-16T07:28:07;15.50;99.90
5578;DHT22;2811;51.900;10.734;2022-10-16T07:30:35;15.60;99.90
5578;DHT22;2811;51.900;10.734;2022-10-16T07:33:03;15.60;99.90
5578;DHT22;2811;51.900;10.734;2022-10-16T07:35:30;15.60;99.90
5578;DHT22;2811;51.900;10.734;2022-10-16T07:37:56;15.60;99.90
5578;DHT22;2811;51.900;10.734;2022-10-16T07:40:23;15.60;99.90
5578;DHT22;2811;51.900;10.734;2022-10-16T07:42:53;15.60;99.90
5578;DHT22;2811;51.900;10.734;2022-10-16T07:45:20;15.60;99.90
5578;DHT22;2811;51.900;10.734;2022-10-16T07:47:47;15.60;99.90
5578;DHT22;2811;51.900;10.734;2022-10-16T07:50:14;15.70;99.90
5578;DHT22;2811;51.900;10.734;2022-10-16T07:52:40;15.60;99.90
5578;DHT22;2811;51.900;10.734;2022-10-16T07:55:08;15.60;99.90
5578;DHT22;2811;51.900;10.734;2022-10-16T07:57:35;15.60;99.90
5578;DHT22;2811;51.900;10.734;2022-10-16T08:00:03;15.60;99.90
5578;DHT22;2811;51.900;10.734;2022-10-16T08:02:31;15.60;99.90
5578;DHT22;2811;51.900;10.734;2022-10-16T08:04:58;15.60;99.90
5578;DHT22;2811;51.900;10.734;2022-10-16T08:07:25;15.60;99.90
5578;DHT22;2811;51.900;10.734;2022-10-16T08:09:51;15.70;99.90
5578;DHT22;2811;51.900;10.734;2022-10-16T08:12:18;15.70;99.90
5578;DHT22;2811;51.900;10.734;2022-10-16T08:14:45;15.80;99.90
5578;DHT22;2811;51.900;10.734;2022-10-16T08:17:15;15.90;99.90
5578;DHT22;2811;51.900;10.734;2022-10-16T08:19:44;15.90;99.90
5578;DHT22;2811;51.900;10.734;2022-10-16T08:22:11;16.00;99.90
5578;DHT22;2811;51.900;10.734;2022-10-16T08:24:38;16.10;99.90
5578;DHT22;2811;51.900;10.734;2022-10-16T08:27:05;16.20;99.90
5578;DHT22;2811;51.900;10.734;2022-10-16T08:29:32;16.20;99.90
5578;DHT22;2811;51.900;10.734;2022-10-16T08:31:59;16.40;99.90
5578;DHT22;2811;51.900;10.734;2022-10-16T08:34:27;16.40;99.90
5578;DHT22;2811;51.900;10.734;2022-10-16T08:36:53;16.40;99.90
5578;DHT22;2811;51.900;10.734;2022-10-16T08:39:20;16.40;99.90
5578;DHT22;2811;51.900;10.734;2022-10-16T08:42:15;16.40;99.90
5578;DHT22;2811;51.900;10.734;2022-10-16T08:45:08;16.40;99.90
5578;DHT22;2811;51.900;10.734;2022-10-16T08:47:47;16.40;99.90
5578;DHT22;2811;51.900;10.734;2022-10-16T08:50:21;16.30;99.90
5578;DHT22;2811;51.900;10.734;2022-10-16T08:52:49;16.30;99.90
5578;DHT22;2811;51.900;10.734;2022-10-16T08:55:33;16.40;99.90
5578;DHT22;2811;51.900;10.734;2022-10-16T08:58:11;16.50;99.90
5578;DHT22;2811;51.900;10.734;2022-10-16T09:00:38;16.60;99.90
5578;DHT22;2811;51.900;10.734;2022-10-16T09:03:13;16.60;99.90
5578;DHT22;2811;51.900;10.734;2022-10-16T09:05:57;16.70;99.90
5578;DHT22;2811;51.900;10.734;2022-10-16T09:08:32;16.80;99.90
5578;DHT22;2811;51.900;10.734;2022-10-16T09:11:06;16.90;99.90
5578;DHT22;2811;51.900;10.734;2022-10-16T09:13:41;17.10;99.90
5578;DHT22;2811;51.900;10.734;2022-10-16T09:16:15;17.10;99.90
5578;DHT22;2811;51.900;10.734;2022-10-16T09:18:46;17.30;99.90
5578;DHT22;2811;51.900;10.734;2022-10-16T09:21:19;17.40;99.90
5578;DHT22;2811;51.900;10.734;2022-10-16T09:23:47;17.50;99.90
5578;DHT22;2811;51.900;10.734;2022-10-16T09:26:15;17.50;99.90
5578;DHT22;2811;51.900;10.734;2022-10-16T09:28:43;17.80;99.90
5578;DHT22;2811;51.900;10.734;2022-10-16T09:31:16;17.60;99.90
5578;DHT22;2811;51.900;10.734;2022-10-16T09:33:47;17.40;99.90
5578;DHT22;2811;51.900;10.734;2022-10-16T09:36:16;17.40;99.90
5578;DHT22;2811;51.900;10.734;2022-10-16T09:38:44;17.50;99.90
5578;DHT22;2811;51.900;10.734;2022-10-16T09:41:15;17.60;99.90
5578;DHT22;2811;51.900;10.734;2022-10-16T09:43:48;17.50;99.90
5578;DHT22;2811;51.900;10.734;2022-10-16T09:46:25;17.70;99.90
5578;DHT22;2811;51.900;10.734;2022-10-16T09:48:54;17.80;99.90
5578;DHT22;2811;51.900;10.734;2022-10-16T09:51:26;17.80;99.90
5578;DHT22;2811;51.900;10.734;2022-10-16T09:53:59;17.80;99.90
5578;DHT22;2811;51.900;10.734;2022-10-16T09:56:27;17.90;99.90
5578;DHT22;2811;51.900;10.734;2022-10-16T09:58:57;18.00;99.90
5578;DHT22;2811;51.900;10.734;2022-10-16T10:01:28;18.00;99.90
5578;DHT22;2811;51.900;10.734;2022-10-16T10:03:56;18.00;99.90
5578;DHT22;2811;51.900;10.734;2022-10-16T10:06:29;17.90;99.90
5578;DHT22;2811;51.900;10.734;2022-10-16T10:09:13;17.80;99.90
5578;DHT22;2811;51.900;10.734;2022-10-16T10:11:44;17.90;99.90
5578;DHT22;2811;51.900;10.734;2022-10-16T10:14:26;18.00;99.90
5578;DHT22;2811;51.900;10.734;2022-10-16T10:17:10;18.10;99.90
5578;DHT22;2811;51.900;10.734;2022-10-16T10:19:41;18.00;99.90
5578;DHT22;2811;51.900;10.734;2022-10-16T10:22:24;18.00;99.90
5578;DHT22;2811;51.900;10.734;2022-10-16T10:25:04;17.80;99.90
5578;DHT22;2811;51.900;10.734;2022-10-16T10:27:41;17.90;99.90
5578;DHT22;2811;51.900;10.734;2022-10-16T10:30:15;17.80;99.90
5578;DHT22;2811;51.900;10.734;2022-10-16T10:32:53;17.80;99.90
5578;DHT22;2811;51.900;10.734;2022-10-16T10:35:26;17.90;99.90
5578;DHT22;2811;51.900;10.734;2022-10-16T10:38:03;18.00;99.90
5578;DHT22;2811;51.900;10.734;2022-10-16T10:40:43;18.10;99.90
5578;DHT22;2811;51.900;10.734;2022-10-16T10:43:22;18.00;99.90
5578;DHT22;2811;51.900;10.734;2022-10-16T10:45:54;17.90;99.90
5578;DHT22;2811;51.900;10.734;2022-10-16T10:48:38;17.90;99.90
5578;DHT22;2811;51.900;10.734;2022-10-16T10:51:13;18.10;99.90
5578;DHT22;2811;51.900;10.734;2022-10-16T10:53:50;18.40;99.90
5578;DHT22;2811;51.900;10.734;2022-10-16T10:56:39;18.90;99.90
5578;DHT22;2811;51.900;10.734;2022-10-16T10:59:23;19.40;99.90
5578;DHT22;2811;51.900;10.734;2022-10-16T11:01:55;19.70;99.90
5578;DHT22;2811;51.900;10.734;2022-10-16T11:07:25;19.50;99.90
5578;DHT22;2811;51.900;10.734;2022-10-16T11:09:58;19.40;99.90
5578;DHT22;2811;51.900;10.734;2022-10-16T11:12:30;19.60;99.90
5578;DHT22;2811;51.900;10.734;2022-10-16T11:15:02;19.60;99.90
5578;DHT22;2811;51.900;10.734;2022-10-16T11:17:35;19.90;99.90
5578;DHT22;2811;51.900;10.734;2022-10-16T11:20:13;19.80;99.90
5578;DHT22;2811;51.900;10.734;2022-10-16T11:22:43;19.90;99.90
5578;DHT22;2811;51.900;10.734;2022-10-16T11:25:18;20.00;99.90
5578;DHT22;2811;51.900;10.734;2022-10-16T11:27:50;19.90;99.90
5578;DHT22;2811;51.900;10.734;2022-10-16T11:30:20;20.00;99.90
5578;DHT22;2811;51.900;10.734;2022-10-16T11:32:59;20.00;99.90
5578;DHT22;2811;51.900;10.734;2022-10-16T11:35:37;19.80;99.90
5578;DHT22;2811;51.900;10.734;2022-10-16T11:38:12;19.90;99.90
5578;DHT22;2811;51.900;10.734;2022-10-16T11:40:43;20.00;99.90
5578;DHT22;2811;51.900;10.734;2022-10-16T11:43:17;20.30;99.90
5578;DHT22;2811;51.900;10.734;2022-10-16T11:45:49;20.40;99.90
5578;DHT22;2811;51.900;10.734;2022-10-16T11:48:23;20.50;99.90
5578;DHT22;2811;51.900;10.734;2022-10-16T11:50:53;20.70;99.90
5578;DHT22;2811;51.900;10.734;2022-10-16T11:53:26;20.50;99.90
5578;DHT22;2811;51.900;10.734;2022-10-16T11:55:58;20.30;99.90
5578;DHT22;2811;51.900;10.734;2022-10-16T11:58:27;20.70;99.90
5578;DHT22;2811;51.900;10.734;2022-10-16T12:01:01;21.40;99.90
5578;DHT22;2811;51.900;10.734;2022-10-16T12:03:34;22.10;99.90
5578;DHT22;2811;51.900;10.734;2022-10-16T12:06:14;21.70;99.90
5578;DHT22;2811;51.900;10.734;2022-10-16T12:08:47;21.30;99.90
5578;DHT22;2811;51.900;10.734;2022-10-16T12:11:30;21.40;99.90
5578;DHT22;2811;51.900;10.734;2022-10-16T12:14:17;21.40;99.80
5578;DHT22;2811;51.900;10.734;2022-10-16T12:16:51;21.20;99.90
5578;DHT22;2811;51.900;10.734;2022-10-16T12:19:20;21.30;99.90
5578;DHT22;2811;51.900;10.734;2022-10-16T12:21:48;21.10;99.90
5578;DHT22;2811;51.900;10.734;2022-10-16T12:24:31;20.80;99.90
5578;DHT22;2811;51.900;10.734;2022-10-16T12:27:01;20.70;99.90
5578;DHT22;2811;51.900;10.734;2022-10-16T12:29:33;20.80;99.90
5578;DHT22;2811;51.900;10.734;2022-10-16T12:32:02;21.10;99.90
5578;DHT22;2811;51.900;10.734;2022-10-16T12:34:33;21.20;99.90
5578;DHT22;2811;51.900;10.734;2022-10-16T12:37:18;20.90;99.90
5578;DHT22;2811;51.900;10.734;2022-10-16T12:39:46;20.40;99.90
5578;DHT22;2811;51.900;10.734;2022-10-16T12:42:30;20.50;99.90
5578;DHT22;2811;51.900;10.734;2022-10-16T12:44:59;20.60;99.90
5578;DHT22;2811;51.900;10.734;2022-10-16T12:47:36;20.60;99.90
5578;DHT22;2811;51.900;10.734;2022-10-16T12:50:24;20.30;99.90
5578;DHT22;2811;51.900;10.734;2022-10-16T12:52:51;20.20;99.90
5578;DHT22;2811;51.900;10.734;2022-10-16T12:55:19;20.30;99.90
5578;DHT22;2811;51.900;10.734;2022-10-16T12:58:03;20.20;99.90
5578;DHT22;2811;51.900;10.734;2022-10-16T13:00:39;20.40;99.90
5578;DHT22;2811;51.900;10.734;2022-10-16T13:06:22;20.60;99.90
5578;DHT22;2811;51.900;10.734;2022-10-16T13:09:06;20.60;99.90
5578;DHT22;2811;51.900;10.734;2022-10-16T13:11:46;20.50;99.90
5578;DHT22;2811;51.900;10.734;2022-10-16T13:17:24;20.20;99.90
5578;DHT22;2811;51.900;10.734;2022-10-16T13:20:00;20.10;99.90
5578;DHT22;2811;51.900;10.734;2022-10-16T13:22:33;19.90;99.90
5578;DHT22;2811;51.900;10.734;2022-10-16T13:25:17;19.70;99.90
5578;DHT22;2811;51.900;10.734;2022-10-16T13:27:52;19.70;99.90
5578;DHT22;2811;51.900;10.734;2022-10-16T13:30:24;19.80;99.90
5578;DHT22;2811;51.900;10.734;2022-10-16T13:33:06;19.90;99.90
5578;DHT22;2811;51.900;10.734;2022-10-16T13:35:35;19.90;99.90
5578;DHT22;2811;51.900;10.734;2022-10-16T13:38:12;19.80;99.90
5578;DHT22;2811;51.900;10.734;2022-10-16T13:40:49;19.80;99.90
5578;DHT22;2811;51.900;10.734;2022-10-16T13:43:17;20.00;99.90
5578;DHT22;2811;51.900;10.734;2022-10-16T13:45:54;20.10;99.90
5578;DHT22;2811;51.900;10.734;2022-10-16T13:48:21;20.20;99.90
5578;DHT22;2811;51.900;10.734;2022-10-16T13:50:59;20.00;99.90
5578;DHT22;2811;51.900;10.734;2022-10-16T13:53:26;20.00;99.90
5578;DHT22;2811;51.900;10.734;2022-10-16T13:55:53;20.10;99.90
5578;DHT22;2811;51.900;10.734;2022-10-16T13:58:20;20.10;99.90
5578;DHT22;2811;51.900;10.734;2022-10-16T14:00:56;20.10;99.90
5578;DHT22;2811;51.900;10.734;2022-10-16T14:03:24;20.20;99.90
5578;DHT22;2811;51.900;10.734;2022-10-16T14:05:53;20.20;99.90
5578;DHT22;2811;51.900;10.734;2022-10-16T14:08:21;20.00;99.90
5578;DHT22;2811;51.900;10.734;2022-10-16T14:10:50;19.90;99.90
5578;DHT22;2811;51.900;10.734;2022-10-16T14:13:19;19.90;99.90
5578;DHT22;2811;51.900;10.734;2022-10-16T14:15:47;20.00;99.90
5578;DHT22;2811;51.900;10.734;2022-10-16T14:18:20;20.00;99.90
5578;DHT22;2811;51.900;10.734;2022-10-16T14:20:48;19.90;99.90
5578;DHT22;2811;51.900;10.734;2022-10-16T14:23:21;20.00;99.90
5578;DHT22;2811;51.900;10.734;2022-10-16T14:25:48;20.10;99.90
5578;DHT22;2811;51.900;10.734;2022-10-16T14:28:17;20.20;99.90
5578;DHT22;2811;51.900;10.734;2022-10-16T14:30:50;20.20;99.90
5578;DHT22;2811;51.900;10.734;2022-10-16T14:33:23;20.10;99.90
5578;DHT22;2811;51.900;10.734;2022-10-16T14:36:03;20.10;99.90
5578;DHT22;2811;51.900;10.734;2022-10-16T14:38:31;20.30;99.90
5578;DHT22;2811;51.900;10.734;2022-10-16T14:40:59;19.80;99.90
5578;DHT22;2811;51.900;10.734;2022-10-16T14:43:32;20.10;99.90
5578;DHT22;2811;51.900;10.734;2022-10-16T14:46:00;19.60;99.90
5578;DHT22;2811;51.900;10.734;2022-10-16T14:48:29;19.60;99.90
5578;DHT22;2811;51.900;10.734;2022-10-16T14:50:56;19.60;99.90
5578;DHT22;2811;51.900;10.734;2022-10-16T14:53:23;19.50;99.90
5578;DHT22;2811;51.900;10.734;2022-10-16T14:55:49;19.40;99.90
5578;DHT22;2811;51.900;10.734;2022-10-16T14:58:19;19.30;99.90
5578;DHT22;2811;51.900;10.734;2022-10-16T15:00:46;19.30;99.90
5578;DHT22;2811;51.900;10.734;2022-10-16T15:03:14;19.20;99.90
5578;DHT22;2811;51.900;10.734;2022-10-16T15:05:42;19.30;99.90
5578;DHT22;2811;51.900;10.734;2022-10-16T15:08:09;19.20;99.90
5578;DHT22;2811;51.900;10.734;2022-10-16T15:10:40;19.10;99.90
5578;DHT22;2811;51.900;10.734;2022-10-16T15:13:11;19.20;99.90
5578;DHT22;2811;51.900;10.734;2022-10-16T15:15:41;19.20;99.90
5578;DHT22;2811;51.900;10.734;2022-10-16T15:18:09;19.20;99.90
5578;DHT22;2811;51.900;10.734;2022-10-16T15:20:36;19.10;99.90
5578;DHT22;2811;51.900;10.734;2022-10-16T15:23:09;19.00;99.90
5578;DHT22;2811;51.900;10.734;2022-10-16T15:25:39;18.90;99.90
5578;DHT22;2811;51.900;10.734;2022-10-16T15:28:08;18.80;99.90
5578;DHT22;2811;51.900;10.734;2022-10-16T15:30:35;18.80;99.90
5578;DHT22;2811;51.900;10.734;2022-10-16T15:33:03;18.80;99.90
5578;DHT22;2811;51.900;10.734;2022-10-16T15:35:30;18.70;99.90
5578;DHT22;2811;51.900;10.734;2022-10-16T15:37:57;18.70;99.90
5578;DHT22;2811;51.900;10.734;2022-10-16T15:40:25;18.60;99.90
5578;DHT22;2811;51.900;10.734;2022-10-16T15:42:52;18.40;99.90
5578;DHT22;2811;51.900;10.734;2022-10-16T15:45:19;18.30;99.90
5578;DHT22;2811;51.900;10.734;2022-10-16T15:47:46;18.10;99.90
5578;DHT22;2811;51.900;10.734;2022-10-16T15:50:15;18.00;99.90
5578;DHT22;2811;51.900;10.734;2022-10-16T15:52:42;17.80;99.90
5578;DHT22;2811;51.900;10.734;2022-10-16T15:55:11;17.60;99.90
5578;DHT22;2811;51.900;10.734;2022-10-16T15:57:39;17.50;99.90
5578;DHT22;2811;51.900;10.734;2022-10-16T16:00:10;17.50;99.90
5578;DHT22;2811;51.900;10.734;2022-10-16T16:02:37;17.20;99.90
5578;DHT22;2811;51.900;10.734;2022-10-16T16:05:05;17.10;99.90
5578;DHT22;2811;51.900;10.734;2022-10-16T16:07:33;16.90;99.90
5578;DHT22;2811;51.900;10.734;2022-10-16T16:10:01;16.70;99.90
5578;DHT22;2811;51.900;10.734;2022-10-16T16:12:27;16.70;99.90